Time;durP1;ratioP1;P1;durP2;ratioP2;P2;SDS_P1;SDS_P2;PMS_P1;PMS_P2;Temp;Humidity;BMP_temperature;BMP_pressure;BME280_temperature;BME280_humidity;BME280_pressure;Samples;Min_cycle;Max_cycle;Signal;HPM_P1;HPM_P2
2022/06/30 00:00:59;;;;;;;4.37;3.97;;;21.90;99.90;;;;;;5023779;28;20617;-70
2022/06/30 00:03:26;;;;;;;5.90;4.33;;;21.90;99.90;;;;;;5023839;28;20244;-69
2022/06/30 00:05:51;;;;;;;5.83;4.00;;;21.80;99.90;;;;;;5023704;28;20418;-69
2022/06/30 00:08:17;;;;;;;5.40;4.10;;;21.80;99.90;;;;;;5023771;28;20763;-71
2022/06/30 00:10:43;;;;;;;5.63;4.17;;;21.70;99.90;;;;;;5023454;28;20414;-69
2022/06/30 00:13:08;;;;;;;6.17;3.80;;;21.60;99.90;;;;;;5023540;28;20246;-70
2022/06/30 00:15:35;;;;;;;3.60;3.30;;;21.60;99.90;;;;;;5023265;28;20171;-69
2022/06/30 00:18:01;;;;;;;4.30;3.77;;;21.50;99.90;;;;;;5023590;28;20179;-74
2022/06/30 00:20:27;;;;;;;5.00;3.87;;;21.50;99.90;;;;;;5023405;28;20495;-69
2022/06/30 00:22:52;;;;;;;5.53;4.43;;;21.50;99.90;;;;;;5023352;28;20476;-70
2022/06/30 00:25:18;;;;;;;6.33;4.10;;;21.60;99.90;;;;;;5023064;28;20180;-70
2022/06/30 00:27:44;;;;;;;6.73;3.63;;;21.60;99.90;;;;;;5023638;28;20263;-70
2022/06/30 00:30:10;;;;;;;5.30;3.70;;;21.60;99.90;;;;;;5023479;28;20536;-71
2022/06/30 00:32:36;;;;;;;5.07;4.07;;;21.50;99.90;;;;;;5026656;28;20405;-71
2022/06/30 00:35:02;;;;;;;3.90;3.57;;;21.40;99.90;;;;;;5027117;28;20456;-71
2022/06/30 00:37:27;;;;;;;4.20;3.80;;;21.30;99.90;;;;;;5027701;28;20650;-69
2022/06/30 00:39:53;;;;;;;4.73;3.47;;;21.20;99.90;;;;;;5028071;28;20182;-69
2022/06/30 00:42:19;;;;;;;7.97;3.93;;;21.20;99.90;;;;;;5017562;28;20203;-68
2022/06/30 00:44:44;;;;;;;4.80;3.80;;;21.30;99.90;;;;;;5026873;28;20211;-70
2022/06/30 00:47:10;;;;;;;3.67;3.27;;;21.20;99.90;;;;;;5023352;28;20270;-68
2022/06/30 00:49:37;;;;;;;4.80;4.07;;;21.30;99.90;;;;;;5026917;28;20172;-70
2022/06/30 00:52:06;;;;;;;4.40;4.03;;;21.40;99.90;;;;;;5009996;28;20425;-71
2022/06/30 00:54:34;;;;;;;4.77;3.97;;;21.50;99.90;;;;;;5026167;28;20445;-68
2022/06/30 00:57:00;;;;;;;4.40;4.00;;;21.50;99.90;;;;;;5027043;28;20490;-69
2022/06/30 00:59:28;;;;;;;5.80;4.17;;;21.40;99.90;;;;;;5026827;28;20939;-70
2022/06/30 01:01:55;;;;;;;6.23;4.23;;;21.30;99.90;;;;;;5027046;28;20405;-71
2022/06/30 01:04:20;;;;;;;4.87;4.40;;;21.20;99.90;;;;;;5027062;28;20442;-69
2022/06/30 01:06:47;;;;;;;5.50;4.77;;;21.20;99.90;;;;;;5027005;28;20795;-73
2022/06/30 01:12:41;;;;;;;6.97;4.87;;;21.20;99.90;;;;;;5026791;28;20179;-69
2022/06/30 01:14:48;;;;;;;5.60;5.10;;;21.00;99.90;;;;;;5026327;28;20591;-69
2022/06/30 01:17:14;;;;;;;4.40;4.10;;;21.00;99.90;;;;;;5016561;28;20426;-69
2022/06/30 01:19:51;;;;;;;5.53;4.30;;;21.00;99.90;;;;;;5026909;28;20898;-71
2022/06/30 01:22:16;;;;;;;5.80;5.20;;;20.90;99.90;;;;;;5026880;28;20575;-70
2022/06/30 01:24:42;;;;;;;5.43;4.97;;;20.90;99.90;;;;;;5026540;28;20438;-70
2022/06/30 01:27:08;;;;;;;5.93;5.33;;;20.90;99.90;;;;;;5027396;28;20183;-67
2022/06/30 01:29:33;;;;;;;5.13;4.63;;;20.90;99.90;;;;;;5026539;28;20194;-70
2022/06/30 01:31:59;;;;;;;10.73;5.47;;;20.70;99.90;;;;;;5026762;28;20175;-67
2022/06/30 01:34:24;;;;;;;5.80;5.20;;;20.70;99.90;;;;;;5027291;28;20195;-70
2022/06/30 01:36:50;;;;;;;6.40;5.13;;;20.80;99.90;;;;;;5026781;28;20187;-69
2022/06/30 01:39:15;;;;;;;5.97;5.37;;;20.80;99.90;;;;;;5026904;28;20183;-71
2022/06/30 01:41:41;;;;;;;7.33;5.40;;;20.90;99.90;;;;;;5027174;28;20179;-70
2022/06/30 01:44:07;;;;;;;7.67;6.00;;;20.70;99.90;;;;;;5025633;28;20215;-71
2022/06/30 01:46:33;;;;;;;5.40;5.00;;;20.70;99.90;;;;;;5026872;28;20599;-71
2022/06/30 01:48:59;;;;;;;5.23;4.80;;;20.80;99.90;;;;;;5027410;28;20238;-72
2022/06/30 01:51:24;;;;;;;6.00;5.53;;;20.90;99.90;;;;;;5027639;28;20413;-70
2022/06/30 01:53:50;;;;;;;7.33;5.30;;;21.00;99.90;;;;;;5026221;28;20298;-70
2022/06/30 01:56:15;;;;;;;5.87;5.27;;;21.00;99.90;;;;;;5028073;28;20194;-68
2022/06/30 01:58:41;;;;;;;5.80;5.37;;;20.90;99.90;;;;;;5026739;28;20194;-69
2022/06/30 02:01:06;;;;;;;6.17;5.67;;;20.90;99.90;;;;;;5025451;28;20626;-71
2022/06/30 02:03:32;;;;;;;6.37;5.80;;;20.80;99.90;;;;;;5027374;28;20219;-69
2022/06/30 02:05:58;;;;;;;6.30;5.70;;;20.80;99.90;;;;;;5043084;28;20175;-73
2022/06/30 02:08:23;;;;;;;6.13;5.00;;;20.70;99.90;;;;;;5042844;28;20645;-73
2022/06/30 02:10:49;;;;;;;6.13;5.57;;;20.70;99.90;;;;;;5043626;28;20179;-72
2022/06/30 02:13:19;;;;;;;6.23;5.73;;;20.60;99.90;;;;;;5042658;28;20211;-69
2022/06/30 02:15:44;;;;;;;6.00;5.23;;;20.50;99.90;;;;;;5041636;28;20191;-70
2022/06/30 02:18:10;;;;;;;6.63;6.00;;;20.20;99.90;;;;;;5042340;28;20911;-70
2022/06/30 02:20:37;;;;;;;6.37;5.77;;;20.20;99.90;;;;;;5037934;28;20208;-71
2022/06/30 02:23:04;;;;;;;5.97;5.47;;;20.30;99.90;;;;;;5039261;28;20205;-70
2022/06/30 02:25:31;;;;;;;5.90;5.30;;;20.30;99.90;;;;;;5041523;28;20440;-70
2022/06/30 02:27:57;;;;;;;5.63;5.03;;;20.30;99.90;;;;;;5041269;28;20437;-70
2022/06/30 02:30:24;;;;;;;5.63;5.13;;;20.30;99.90;;;;;;5026234;28;20463;-68
2022/06/30 02:32:50;;;;;;;9.53;4.97;;;20.30;99.90;;;;;;5026902;28;20501;-69
2022/06/30 02:35:16;;;;;;;5.30;4.90;;;20.40;99.90;;;;;;5024586;28;20509;-69
2022/06/30 02:37:42;;;;;;;6.10;5.50;;;20.40;99.90;;;;;;5025293;28;20167;-70
2022/06/30 02:40:08;;;;;;;5.80;5.30;;;20.30;99.90;;;;;;5013537;28;21609;-69
2022/06/30 02:42:34;;;;;;;5.33;4.83;;;20.40;99.90;;;;;;5025326;28;20223;-69
2022/06/30 02:45:00;;;;;;;6.93;5.30;;;20.40;99.90;;;;;;5025498;28;20426;-69
2022/06/30 02:47:33;;;;;;;5.57;5.17;;;20.30;99.90;;;;;;5024564;28;20456;-70
2022/06/30 02:50:03;;;;;;;6.63;5.70;;;20.30;99.90;;;;;;5025098;28;20183;-69
2022/06/30 02:52:32;;;;;;;6.10;5.57;;;20.30;99.90;;;;;;5025043;28;20446;-68
2022/06/30 02:54:59;;;;;;;5.10;4.70;;;20.30;99.90;;;;;;5023852;28;20438;-71
2022/06/30 02:57:24;;;;;;;8.03;6.80;;;20.20;99.90;;;;;;5024914;28;20432;-70
2022/06/30 02:59:51;;;;;;;5.90;5.50;;;20.20;99.90;;;;;;5024935;28;20409;-70
2022/06/30 03:02:16;;;;;;;6.23;5.73;;;20.10;99.90;;;;;;5024674;28;20217;-70
2022/06/30 03:04:42;;;;;;;6.73;6.13;;;20.10;99.90;;;;;;5025123;28;20805;-69
2022/06/30 03:07:08;;;;;;;5.50;5.10;;;20.10;99.90;;;;;;5024837;28;21064;-70
2022/06/30 03:09:34;;;;;;;12.93;5.63;;;20.10;99.90;;;;;;5024756;28;20652;-70
2022/06/30 03:12:00;;;;;;;6.47;5.87;;;20.10;99.90;;;;;;5024684;28;20176;-69
2022/06/30 03:14:25;;;;;;;6.47;5.97;;;20.00;99.90;;;;;;5024553;28;20504;-70
2022/06/30 03:16:51;;;;;;;6.60;6.00;;;20.00;99.90;;;;;;5024180;28;20179;-69
2022/06/30 03:19:17;;;;;;;7.37;5.73;;;20.00;99.90;;;;;;5024850;28;20262;-70
2022/06/30 03:21:42;;;;;;;7.03;6.43;;;19.80;99.90;;;;;;5024952;28;20191;-71
2022/06/30 03:24:08;;;;;;;5.67;5.17;;;19.80;99.90;;;;;;5024398;28;20234;-70
2022/06/30 03:26:36;;;;;;;5.60;5.10;;;19.90;99.90;;;;;;5024576;28;20199;-68
2022/06/30 03:29:02;;;;;;;6.13;5.50;;;20.00;99.90;;;;;;5024098;28;20417;-69
2022/06/30 03:31:27;;;;;;;6.40;5.90;;;19.90;99.90;;;;;;5024329;28;20480;-70
2022/06/30 03:33:53;;;;;;;6.30;5.60;;;19.90;99.90;;;;;;5025099;28;20438;-69
2022/06/30 03:36:19;;;;;;;5.97;5.43;;;20.00;99.90;;;;;;5024798;28;20183;-70
2022/06/30 03:38:44;;;;;;;8.77;6.50;;;20.00;99.90;;;;;;5024665;28;20722;-68
2022/06/30 03:41:10;;;;;;;7.50;6.00;;;20.00;99.90;;;;;;5024901;28;21519;-69
2022/06/30 03:43:36;;;;;;;5.97;5.37;;;20.00;99.90;;;;;;5024708;28;20211;-69
2022/06/30 03:46:01;;;;;;;5.50;5.10;;;20.10;99.90;;;;;;5024477;28;20636;-69
2022/06/30 03:48:27;;;;;;;5.57;5.13;;;20.10;99.90;;;;;;5025132;28;20187;-69
2022/06/30 03:50:53;;;;;;;4.80;4.50;;;20.10;99.90;;;;;;5024850;28;20187;-70
2022/06/30 03:53:18;;;;;;;6.20;4.90;;;20.10;99.90;;;;;;5024469;28;20620;-69
2022/06/30 03:55:44;;;;;;;5.80;5.10;;;20.20;99.90;;;;;;5024275;28;20225;-68
2022/06/30 03:58:09;;;;;;;4.87;4.40;;;20.20;99.90;;;;;;5024211;28;20232;-67
2022/06/30 04:00:36;;;;;;;5.60;5.10;;;20.20;99.90;;;;;;5024093;28;20175;-70
2022/06/30 04:03:02;;;;;;;5.70;5.20;;;20.10;99.90;;;;;;5024038;28;20205;-70
2022/06/30 04:05:29;;;;;;;5.37;4.97;;;20.20;99.90;;;;;;5024496;28;20615;-68
2022/06/30 04:07:54;;;;;;;5.97;5.13;;;20.20;99.90;;;;;;5030151;28;20495;-69
2022/06/30 04:10:21;;;;;;;6.10;5.60;;;20.20;99.90;;;;;;5030846;28;20945;-68
2022/06/30 04:12:46;;;;;;;5.73;5.23;;;20.20;99.90;;;;;;5030392;28;20224;-69
2022/06/30 04:15:12;;;;;;;5.77;5.37;;;20.20;99.90;;;;;;5030641;28;20572;-69
2022/06/30 04:17:38;;;;;;;5.57;5.17;;;20.30;99.90;;;;;;5029822;28;20324;-69
2022/06/30 04:20:06;;;;;;;6.13;5.30;;;20.20;99.90;;;;;;5024540;28;20178;-69
2022/06/30 04:22:32;;;;;;;6.60;6.00;;;20.30;99.90;;;;;;5030423;28;21000;-71
2022/06/30 04:24:58;;;;;;;6.33;5.73;;;20.30;99.90;;;;;;5030095;28;20425;-70
2022/06/30 04:27:23;;;;;;;7.40;6.70;;;20.30;99.90;;;;;;5030643;28;20501;-70
2022/06/30 04:29:49;;;;;;;6.00;5.50;;;20.30;99.90;;;;;;5020201;28;20424;-69
2022/06/30 04:34:59;;;;;;;6.80;6.20;;;20.40;99.90;;;;;;5030491;28;20309;-70
2022/06/30 04:37:25;;;;;;;5.47;4.97;;;20.30;99.90;;;;;;5030589;28;20501;-69
2022/06/30 04:41:23;;;;;;;7.37;5.93;;;20.40;99.90;;;;;;5030271;28;20183;-70
2022/06/30 04:42:36;;;;;;;6.67;5.97;;;20.40;99.90;;;;;;5029799;28;20202;-68
2022/06/30 04:45:02;;;;;;;5.93;5.37;;;20.40;99.90;;;;;;5029964;28;20434;-70
2022/06/30 04:47:27;;;;;;;6.43;5.83;;;20.30;99.90;;;;;;5029550;28;20183;-71
2022/06/30 04:49:54;;;;;;;5.43;5.03;;;20.30;99.90;;;;;;5030129;28;20445;-71
2022/06/30 04:52:20;;;;;;;5.63;5.13;;;20.30;99.90;;;;;;5030040;28;20734;-71
2022/06/30 04:54:45;;;;;;;5.90;5.50;;;20.40;99.90;;;;;;5029925;28;20468;-72
2022/06/30 04:57:11;;;;;;;6.50;5.90;;;20.50;99.90;;;;;;5030249;28;20277;-70
2022/06/30 04:59:36;;;;;;;7.87;7.07;;;20.60;99.90;;;;;;5029883;28;20187;-70
2022/06/30 05:02:02;;;;;;;10.67;6.40;;;20.70;99.90;;;;;;5029336;28;20678;-69
2022/06/30 05:04:28;;;;;;;6.90;6.20;;;20.70;99.90;;;;;;5017685;28;20581;-71
2022/06/30 05:06:53;;;;;;;6.67;5.80;;;20.80;99.90;;;;;;5030006;28;20259;-70
2022/06/30 05:09:19;;;;;;;6.33;5.73;;;20.80;99.90;;;;;;5029459;28;20628;-73
2022/06/30 05:11:44;;;;;;;6.03;5.53;;;21.00;99.90;;;;;;5030011;28;20214;-69
2022/06/30 05:14:10;;;;;;;5.40;4.90;;;21.10;99.90;;;;;;5029488;28;20207;-70
2022/06/30 05:16:36;;;;;;;6.73;6.10;;;21.20;99.90;;;;;;5029384;28;20225;-68
2022/06/30 05:19:01;;;;;;;5.33;4.93;;;21.30;99.90;;;;;;5025906;28;20258;-70
2022/06/30 05:21:27;;;;;;;13.47;7.40;;;21.40;99.90;;;;;;5026998;28;20708;-69
2022/06/30 05:26:36;;;;;;;9.30;6.63;;;21.60;99.90;;;;;;5026452;28;20174;-69
2022/06/30 05:29:02;;;;;;;6.43;5.40;;;21.80;99.90;;;;;;5026041;28;20419;-70
2022/06/30 05:31:27;;;;;;;7.67;6.60;;;21.80;99.90;;;;;;5020581;28;20179;-69
2022/06/30 05:33:53;;;;;;;7.03;6.43;;;21.90;99.90;;;;;;5026500;28;20706;-70
2022/06/30 05:36:18;;;;;;;5.97;5.17;;;22.00;99.90;;;;;;5027256;28;20186;-70
2022/06/30 05:38:44;;;;;;;6.93;6.43;;;22.10;99.90;;;;;;5027358;28;20536;-70
2022/06/30 05:41:10;;;;;;;9.50;5.77;;;22.20;99.90;;;;;;5026292;28;20183;-69
2022/06/30 05:43:35;;;;;;;6.57;6.07;;;22.40;99.90;;;;;;5026689;28;20214;-70
2022/06/30 05:46:01;;;;;;;6.37;5.83;;;22.50;99.90;;;;;;5025919;28;20226;-69
2022/06/30 05:48:26;;;;;;;8.83;5.80;;;22.60;99.90;;;;;;5025722;28;20211;-69
2022/06/30 05:50:52;;;;;;;7.03;6.33;;;22.70;99.90;;;;;;5026061;28;20190;-70
2022/06/30 05:53:17;;;;;;;6.67;6.07;;;22.80;99.90;;;;;;5026151;28;20239;-70
2022/06/30 05:55:43;;;;;;;6.87;6.33;;;22.90;99.90;;;;;;5025711;28;20194;-70
2022/06/30 05:58:13;;;;;;;7.73;6.00;;;23.00;99.90;;;;;;5025507;28;20183;-70
2022/06/30 06:00:38;;;;;;;7.33;6.63;;;23.10;99.90;;;;;;5025762;28;20289;-70
2022/06/30 06:03:04;;;;;;;6.47;5.90;;;23.30;99.90;;;;;;5025463;28;20557;-70
2022/06/30 06:05:30;;;;;;;6.80;6.20;;;23.60;99.90;;;;;;5025889;28;20661;-69
2022/06/30 06:07:56;;;;;;;7.17;6.53;;;23.70;99.90;;;;;;5025457;28;20420;-69
2022/06/30 06:10:21;;;;;;;6.87;6.23;;;23.90;99.90;;;;;;5025315;28;20250;-70
2022/06/30 06:12:47;;;;;;;7.07;6.47;;;23.90;99.90;;;;;;5025153;28;20229;-70
2022/06/30 06:15:14;;;;;;;6.97;6.37;;;23.90;99.90;;;;;;5024983;28;20215;-71
2022/06/30 06:17:41;;;;;;;6.23;5.63;;;24.00;99.90;;;;;;5024718;28;20422;-70
2022/06/30 06:20:08;;;;;;;6.40;5.80;;;24.10;99.90;;;;;;5025297;28;21001;-69
2022/06/30 06:22:34;;;;;;;7.33;6.00;;;24.20;99.90;;;;;;5025277;28;20536;-70
2022/06/30 06:24:59;;;;;;;7.90;7.23;;;24.30;99.90;;;;;;5024815;28;20521;-68
2022/06/30 06:27:25;;;;;;;11.07;6.73;;;24.40;99.90;;;;;;5025519;28;20175;-68
2022/06/30 06:29:50;;;;;;;7.10;6.40;;;24.50;99.90;;;;;;5024831;28;20175;-69
2022/06/30 06:32:16;;;;;;;8.53;7.70;;;24.50;99.90;;;;;;5024723;28;20190;-69
2022/06/30 06:34:41;;;;;;;7.80;7.00;;;24.50;99.90;;;;;;5007647;28;20191;-70
2022/06/30 06:37:07;;;;;;;7.63;6.90;;;24.40;99.90;;;;;;5024816;28;20198;-70
2022/06/30 06:39:33;;;;;;;9.07;7.70;;;24.50;99.90;;;;;;5024611;28;20175;-70
2022/06/30 06:41:58;;;;;;;8.20;7.50;;;24.70;99.90;;;;;;5024269;28;20207;-69
2022/06/30 06:44:25;;;;;;;7.70;6.93;;;24.80;99.90;;;;;;5024425;28;20207;-69
2022/06/30 06:46:50;;;;;;;7.67;6.63;;;24.80;99.90;;;;;;5024133;28;20244;-70
2022/06/30 06:49:16;;;;;;;7.53;6.93;;;24.70;99.90;;;;;;5024678;28;20414;-69
2022/06/30 06:51:42;;;;;;;7.67;6.90;;;24.70;99.90;;;;;;5024407;28;20229;-69
2022/06/30 06:54:07;;;;;;;7.80;7.20;;;24.60;99.90;;;;;;5024282;28;20202;-69
2022/06/30 06:56:33;;;;;;;9.87;6.93;;;24.80;99.90;;;;;;5024051;28;20270;-69
2022/06/30 06:58:59;;;;;;;6.80;6.07;;;24.90;99.90;;;;;;5024677;28;20655;-70
2022/06/30 07:01:25;;;;;;;9.73;7.50;;;25.10;99.90;;;;;;5024170;28;20175;-70
2022/06/30 07:03:51;;;;;;;8.70;7.60;;;25.20;99.90;;;;;;5024274;28;20842;-69
2022/06/30 07:06:16;;;;;;;9.77;8.87;;;25.20;99.90;;;;;;5024562;28;20179;-68
2022/06/30 07:08:42;;;;;;;9.10;7.60;;;25.00;99.90;;;;;;5024238;28;20179;-70
2022/06/30 07:11:09;;;;;;;8.60;7.83;;;25.20;99.90;;;;;;5023971;28;20210;-69
2022/06/30 07:13:35;;;;;;;9.17;7.87;;;25.00;99.90;;;;;;5023577;28;20276;-69
2022/06/30 07:16:02;;;;;;;10.93;7.20;;;24.90;99.90;;;;;;5024065;28;20418;-69
2022/06/30 07:18:28;;;;;;;10.43;8.73;;;25.20;99.90;;;;;;5023916;28;20418;-71
2022/06/30 07:20:53;;;;;;;7.33;6.73;;;25.20;99.90;;;;;;5023974;28;20467;-70
2022/06/30 07:23:19;;;;;;;6.50;5.90;;;25.20;99.90;;;;;;5023994;28;20203;-68
2022/06/30 07:25:45;;;;;;;6.10;5.40;;;25.20;99.90;;;;;;5023837;28;20187;-71
2022/06/30 07:28:10;;;;;;;6.37;5.77;;;25.40;99.90;;;;;;5024022;28;20189;-67
2022/06/30 07:30:36;;;;;;;7.00;6.50;;;25.50;99.90;;;;;;5023650;28;20175;-69
2022/06/30 07:33:02;;;;;;;6.20;5.60;;;25.70;99.90;;;;;;5023839;28;20183;-68
2022/06/30 07:35:27;;;;;;;6.87;5.80;;;25.80;99.90;;;;;;5024256;28;20784;-70
2022/06/30 07:37:53;;;;;;;6.20;5.70;;;26.00;99.90;;;;;;5024473;28;20668;-69
2022/06/30 07:40:19;;;;;;;7.27;5.97;;;26.00;99.90;;;;;;5023342;28;20183;-69
2022/06/30 07:42:45;;;;;;;6.90;6.27;;;25.90;99.90;;;;;;5023581;28;20382;-69
2022/06/30 07:45:11;;;;;;;6.23;5.73;;;26.00;99.90;;;;;;5023286;28;20281;-69
2022/06/30 07:47:39;;;;;;;7.17;6.47;;;25.80;99.90;;;;;;5023445;28;20437;-70
2022/06/30 07:50:06;;;;;;;7.40;6.70;;;25.80;99.90;;;;;;5023953;28;20438;-69
2022/06/30 07:52:33;;;;;;;7.10;5.97;;;25.80;99.90;;;;;;5024087;28;20510;-68
2022/06/30 07:54:59;;;;;;;6.33;5.77;;;25.70;99.90;;;;;;5023497;28;20438;-69
2022/06/30 07:57:27;;;;;;;5.77;5.27;;;25.70;99.90;;;;;;5023747;28;21017;-72
2022/06/30 07:59:52;;;;;;;8.10;5.73;;;26.00;99.90;;;;;;5023687;28;20502;-69
2022/06/30 08:02:18;;;;;;;6.33;5.80;;;26.00;99.90;;;;;;5023179;28;20418;-72
2022/06/30 08:04:44;;;;;;;6.27;5.70;;;26.00;99.90;;;;;;5023280;28;20222;-71
2022/06/30 08:07:09;;;;;;;7.97;5.80;;;26.20;99.90;;;;;;5023392;28;20179;-70
2022/06/30 08:09:35;;;;;;;10.23;6.20;;;26.20;99.90;;;;;;5023495;28;20175;-70
2022/06/30 08:12:01;;;;;;;10.33;5.83;;;26.10;99.90;;;;;;5022940;28;20183;-70
2022/06/30 08:14:26;;;;;;;7.23;6.60;;;26.10;99.90;;;;;;5023305;28;20595;-70
2022/06/30 08:16:52;;;;;;;6.03;5.43;;;26.00;99.90;;;;;;5022827;28;20277;-69
2022/06/30 08:19:19;;;;;;;7.73;5.30;;;26.00;99.90;;;;;;5024096;28;20323;-68
2022/06/30 08:21:45;;;;;;;7.53;5.90;;;26.10;99.90;;;;;;5022670;28;20512;-68
2022/06/30 08:24:11;;;;;;;9.20;5.33;;;26.40;99.90;;;;;;5023153;28;20824;-69
2022/06/30 08:26:37;;;;;;;6.23;5.63;;;26.60;99.90;;;;;;5023387;28;20425;-68
2022/06/30 08:29:03;;;;;;;7.00;6.10;;;26.60;99.90;;;;;;5023032;28;20179;-69
2022/06/30 08:31:29;;;;;;;5.73;5.20;;;26.80;99.90;;;;;;5022939;28;20187;-68
2022/06/30 08:33:55;;;;;;;6.87;6.27;;;26.60;99.90;;;;;;5023061;28;20668;-71
2022/06/30 08:36:21;;;;;;;5.83;5.30;;;26.60;99.90;;;;;;5023205;28;20420;-70
2022/06/30 08:38:47;;;;;;;5.73;5.20;;;26.70;99.90;;;;;;5023446;28;20448;-68
2022/06/30 08:43:59;;;;;;;5.30;4.80;;;27.00;99.90;;;;;;5022729;28;20226;-70
2022/06/30 08:46:27;;;;;;;6.10;5.47;;;26.90;99.90;;;;;;5023197;28;20765;-70
2022/06/30 08:48:53;;;;;;;7.53;5.47;;;26.90;99.90;;;;;;5024828;28;20418;-68
2022/06/30 08:51:19;;;;;;;5.00;4.60;;;26.90;99.90;;;;;;5022970;28;20432;-68
2022/06/30 08:54:06;;;;;;;7.27;5.50;;;27.10;99.90;;;;;;5024408;28;20433;-69
2022/06/30 08:56:34;;;;;;;6.70;5.23;;;27.40;99.90;;;;;;5026426;28;20429;-68
2022/06/30 08:59:02;;;;;;;6.17;5.03;;;27.30;99.90;;;;;;5026818;28;20971;-69
2022/06/30 09:01:28;;;;;;;5.40;4.60;;;27.20;99.90;;;;;;5026607;28;20607;-72
2022/06/30 09:03:55;;;;;;;7.30;4.53;;;27.30;99.90;;;;;;5026406;28;20497;-69
2022/06/30 09:06:21;;;;;;;6.03;4.73;;;27.60;99.90;;;;;;5026824;28;20413;-70
2022/06/30 09:08:46;;;;;;;4.80;4.30;;;27.90;99.90;;;;;;5026420;28;20406;-67
2022/06/30 09:11:12;;;;;;;6.37;5.00;;;27.60;99.90;;;;;;5026760;28;20199;-69
2022/06/30 09:13:44;;;;;;;5.67;4.57;;;27.70;99.90;;;;;;5026374;28;20247;-72
2022/06/30 09:16:10;;;;;;;7.07;5.00;;;27.80;99.90;;;;;;5026658;28;20283;-69
2022/06/30 09:18:36;;;;;;;5.30;4.80;;;27.90;99.90;;;;;;5026211;28;21000;-71
2022/06/30 09:21:14;;;;;;;5.70;4.60;;;27.80;99.90;;;;;;5026611;28;20513;-68
2022/06/30 09:23:43;;;;;;;5.33;4.63;;;27.60;99.90;;;;;;5026502;28;20494;-69
2022/06/30 09:26:19;;;;;;;6.23;3.97;;;27.80;99.90;;;;;;5026268;28;20442;-68
2022/06/30 09:28:51;;;;;;;5.40;4.10;;;28.00;99.90;;;;;;5026181;28;20489;-69
2022/06/30 09:31:38;;;;;;;6.73;4.13;;;28.20;99.40;;;;;;5026029;28;20986;-70
2022/06/30 09:34:18;;;;;;;4.53;3.57;;;28.30;99.90;;;;;;5025648;28;20529;-70
2022/06/30 09:36:46;;;;;;;3.97;3.57;;;28.30;99.00;;;;;;5025952;28;20418;-73
2022/06/30 09:39:13;;;;;;;5.13;3.60;;;28.20;99.50;;;;;;5026228;28;20501;-71
2022/06/30 09:41:41;;;;;;;3.80;3.50;;;28.30;97.50;;;;;;5026115;28;20584;-71
2022/06/30 09:44:16;;;;;;;3.77;3.47;;;28.20;95.50;;;;;;5025843;28;20978;-71
2022/06/30 09:47:15;;;;;;;4.30;3.63;;;28.20;96.10;;;;;;5025128;28;20815;-70
2022/06/30 09:49:46;;;;;;;3.83;3.53;;;28.30;97.50;;;;;;4992404;28;20434;-71
2022/06/30 09:52:21;;;;;;;3.70;3.40;;;28.30;97.20;;;;;;5025931;28;20406;-70
2022/06/30 09:54:54;;;;;;;4.97;3.40;;;28.20;96.80;;;;;;5025578;28;20792;-68
2022/06/30 09:57:20;;;;;;;3.80;3.33;;;28.30;95.90;;;;;;5025077;28;20506;-70
2022/06/30 09:59:46;;;;;;;4.70;3.53;;;28.60;95.80;;;;;;5025718;28;20464;-68
2022/06/30 10:02:12;;;;;;;4.63;3.17;;;28.70;95.30;;;;;;5025165;28;20430;-68
2022/06/30 10:04:55;;;;;;;5.57;3.60;;;28.90;95.60;;;;;;5024851;28;20193;-68
2022/06/30 10:07:22;;;;;;;5.80;3.37;;;29.10;95.60;;;;;;5025173;28;20567;-67
2022/06/30 10:09:50;;;;;;;3.33;3.03;;;29.10;93.30;;;;;;5025322;28;20421;-68
2022/06/30 10:12:18;;;;;;;5.30;4.03;;;29.30;94.00;;;;;;5011128;28;20522;-68
2022/06/30 10:14:45;;;;;;;4.73;3.27;;;29.40;93.70;;;;;;5024868;28;20480;-68
2022/06/30 10:17:14;;;;;;;5.17;3.60;;;29.50;94.30;;;;;;5024691;28;20422;-70
2022/06/30 10:19:40;;;;;;;3.13;2.60;;;29.60;93.50;;;;;;5025003;28;20414;-68
2022/06/30 10:22:06;;;;;;;4.40;3.97;;;29.60;93.40;;;;;;5025259;28;20829;-68
2022/06/30 10:24:33;;;;;;;4.33;3.83;;;29.60;95.50;;;;;;5024648;28;20489;-68
2022/06/30 10:27:12;;;;;;;5.13;4.63;;;29.70;95.60;;;;;;5024511;28;20989;-68
2022/06/30 10:29:40;;;;;;;7.40;4.20;;;29.50;94.50;;;;;;5015979;28;20453;-71
2022/06/30 10:32:28;;;;;;;6.97;4.30;;;29.30;94.00;;;;;;5025401;28;20417;-70
2022/06/30 10:35:07;;;;;;;6.80;4.23;;;29.50;93.60;;;;;;4994921;28;20446;-71
2022/06/30 10:37:40;;;;;;;4.23;3.83;;;29.60;93.10;;;;;;5024788;28;20471;-70
2022/06/30 10:40:09;;;;;;;4.60;4.13;;;29.50;93.90;;;;;;5024091;28;20448;-70
2022/06/30 10:42:55;;;;;;;5.83;4.63;;;29.80;94.30;;;;;;5024632;28;20910;-69
2022/06/30 10:45:27;;;;;;;5.10;3.67;;;29.90;93.00;;;;;;5022968;28;20426;-70
2022/06/30 10:48:04;;;;;;;5.63;4.50;;;29.80;93.10;;;;;;5024421;28;21555;-69
2022/06/30 10:50:41;;;;;;;4.30;3.97;;;29.50;92.70;;;;;;5023993;28;20409;-69
2022/06/30 10:53:09;;;;;;;6.43;3.87;;;29.80;93.10;;;;;;5024483;28;20866;-70
2022/06/30 10:55:49;;;;;;;4.13;3.83;;;29.90;93.10;;;;;;5024401;28;20467;-69
2022/06/30 10:58:15;;;;;;;4.37;3.97;;;30.20;92.50;;;;;;5024598;28;20424;-70
2022/06/30 11:00:55;;;;;;;4.50;3.60;;;30.30;92.30;;;;;;5024279;28;20887;-71
2022/06/30 11:03:30;;;;;;;6.07;4.07;;;30.30;92.20;;;;;;5024207;28;20210;-70
2022/06/30 11:06:10;;;;;;;4.97;3.80;;;30.50;92.40;;;;;;5024252;28;20437;-68
2022/06/30 11:08:47;;;;;;;5.10;3.90;;;30.60;91.10;;;;;;5024176;28;20408;-70
2022/06/30 11:11:24;;;;;;;4.63;4.23;;;30.60;91.60;;;;;;5023993;28;20489;-70
2022/06/30 11:14:01;;;;;;;4.17;3.80;;;30.60;91.40;;;;;;5022751;28;20548;-69
2022/06/30 11:16:28;;;;;;;3.97;3.67;;;30.60;91.40;;;;;;5022879;28;20437;-67
2022/06/30 11:18:53;;;;;;;5.17;4.43;;;30.60;91.10;;;;;;5024028;28;20422;-69
2022/06/30 11:21:20;;;;;;;4.33;3.80;;;30.60;91.30;;;;;;5024000;28;20940;-68
2022/06/30 11:23:47;;;;;;;4.60;4.13;;;30.90;91.50;;;;;;5023357;28;20203;-70
2022/06/30 11:29:00;;;;;;;4.43;3.83;;;31.30;87.00;;;;;;5024198;28;20444;-70
2022/06/30 11:31:31;;;;;;;3.70;3.43;;;31.20;88.90;;;;;;5023461;28;20414;-70
2022/06/30 11:34:14;;;;;;;3.60;3.30;;;31.60;90.40;;;;;;5023892;28;20441;-70
2022/06/30 11:36:41;;;;;;;4.87;3.40;;;32.20;85.30;;;;;;5024057;28;20948;-69
2022/06/30 11:39:14;;;;;;;5.97;3.80;;;33.70;85.90;;;;;;5024065;28;20418;-69
2022/06/30 11:41:58;;;;;;;4.53;3.63;;;35.10;77.60;;;;;;5023692;28;20417;-70
2022/06/30 11:44:32;;;;;;;5.73;3.40;;;36.90;72.20;;;;;;5023410;28;21048;-70
2022/06/30 11:47:04;;;;;;;6.43;3.17;;;36.80;66.30;;;;;;5023939;28;20409;-69
2022/06/30 11:49:48;;;;;;;6.67;4.13;;;37.00;68.90;;;;;;5024122;28;20406;-68
2022/06/30 11:52:15;;;;;;;5.13;3.87;;;35.80;68.40;;;;;;5023511;28;20509;-69
2022/06/30 11:54:55;;;;;;;4.90;4.50;;;36.30;67.90;;;;;;5023120;28;20506;-71
2022/06/30 11:57:31;;;;;;;5.23;3.83;;;35.40;66.70;;;;;;5023682;28;20422;-70
2022/06/30 12:00:00;;;;;;;4.33;3.80;;;34.70;70.90;;;;;;5023409;28;20406;-70
2022/06/30 12:02:26;;;;;;;3.57;3.27;;;34.20;67.80;;;;;;5023328;28;20398;-70
2022/06/30 12:04:54;;;;;;;3.90;3.60;;;33.10;68.20;;;;;;5021541;28;20438;-71
2022/06/30 12:07:21;;;;;;;4.03;3.50;;;32.30;72.60;;;;;;5023130;28;20402;-72
2022/06/30 12:09:48;;;;;;;3.77;3.47;;;34.00;70.00;;;;;;5022851;28;20474;-71
2022/06/30 12:12:18;;;;;;;6.57;3.63;;;35.20;66.10;;;;;;5023000;28;20410;-69
2022/06/30 12:14:45;;;;;;;4.10;3.70;;;36.80;63.10;;;;;;5022655;28;20503;-72
2022/06/30 12:17:13;;;;;;;4.60;4.00;;;36.50;62.30;;;;;;5023574;28;20449;-69
2022/06/30 12:19:41;;;;;;;5.23;3.60;;;36.90;63.10;;;;;;5023237;28;20537;-70
2022/06/30 12:22:08;;;;;;;3.60;3.10;;;36.60;60.70;;;;;;5023761;28;20475;-68
2022/06/30 12:24:36;;;;;;;3.97;2.67;;;37.40;60.70;;;;;;5023209;28;20887;-70
2022/06/30 12:27:02;;;;;;;4.40;3.20;;;38.30;54.80;;;;;;5022692;28;20509;-69
2022/06/30 12:29:29;;;;;;;5.10;3.30;;;37.90;54.80;;;;;;5027421;28;20410;-69
2022/06/30 12:31:58;;;;;;;5.20;3.70;;;38.40;55.50;;;;;;5027034;28;20467;-69
2022/06/30 12:34:24;;;;;;;3.57;3.27;;;38.30;56.90;;;;;;5027306;28;20515;-69
2022/06/30 12:36:50;;;;;;;4.47;3.40;;;38.40;55.60;;;;;;5027547;28;20933;-70
2022/06/30 12:39:16;;;;;;;4.03;3.17;;;38.60;54.60;;;;;;5027065;28;20421;-68
2022/06/30 12:41:45;;;;;;;3.70;3.17;;;39.90;52.60;;;;;;5017013;28;20190;-70
2022/06/30 12:44:11;;;;;;;6.43;3.20;;;40.10;51.00;;;;;;5027459;28;20464;-70
2022/06/30 12:46:42;;;;;;;6.37;3.00;;;40.20;50.70;;;;;;5026110;28;20425;-69
2022/06/30 12:49:20;;;;;;;3.93;3.40;;;40.80;50.10;;;;;;5008984;28;20175;-70
2022/06/30 12:51:47;;;;;;;3.30;3.10;;;40.50;51.00;;;;;;5026815;28;20406;-70
2022/06/30 12:54:16;;;;;;;2.93;2.73;;;40.30;48.60;;;;;;5026803;28;20439;-70
2022/06/30 12:56:52;;;;;;;3.50;3.20;;;40.60;48.40;;;;;;5026899;28;20401;-70
2022/06/30 12:59:21;;;;;;;3.17;2.90;;;40.00;49.20;;;;;;5026769;28;20401;-69
2022/06/30 13:02:02;;;;;;;3.50;3.07;;;39.90;48.90;;;;;;5026523;28;20416;-71